Time;durP1;ratioP1;P1;durP2;ratioP2;P2;SDS_P1;SDS_P2;PMS_P1;PMS_P2;Temp;Humidity;BMP_temperature;BMP_pressure;BME280_temperature;BME280_humidity;BME280_pressure;Samples;Min_cycle;Max_cycle;Signal;HPM_P1;HPM_P2
2023/10/02 00:02:01;;;;;;;0.00;0.00;;;21.60;48.40;;;;;;5013615;28;20197;-58
2023/10/02 00:04:35;;;;;;;0.00;0.00;;;21.60;48.30;;;;;;5013820;28;20208;-55
2023/10/02 00:07:14;;;;;;;0.00;0.00;;;21.60;48.00;;;;;;5013064;28;20239;-64
2023/10/02 00:09:49;;;;;;;0.00;0.00;;;21.60;47.80;;;;;;5012685;28;20204;-54
2023/10/02 00:12:19;;;;;;;0.00;0.00;;;21.70;47.80;;;;;;5012627;28;20232;-55
2023/10/02 00:14:51;;;;;;;0.00;0.00;;;21.70;47.80;;;;;;5012598;28;20720;-55
2023/10/02 00:17:23;;;;;;;0.00;0.00;;;21.70;47.60;;;;;;5013258;28;20539;-59
2023/10/02 00:19:57;;;;;;;0.00;0.00;;;21.70;47.60;;;;;;5013127;28;20284;-59
2023/10/02 00:22:38;;;;;;;0.00;0.00;;;21.70;47.50;;;;;;4996686;28;20271;-59
2023/10/02 00:25:16;;;;;;;0.00;0.00;;;21.70;47.40;;;;;;4993315;28;20197;-58
2023/10/02 00:27:49;;;;;;;0.00;0.00;;;21.70;47.20;;;;;;5013040;28;20750;-59
2023/10/02 00:30:22;;;;;;;0.00;0.00;;;21.70;47.10;;;;;;5012491;28;20626;-61
2023/10/02 00:32:53;;;;;;;0.00;0.00;;;21.70;46.80;;;;;;5012226;28;20233;-61
2023/10/02 00:35:30;;;;;;;0.00;0.00;;;21.80;46.60;;;;;;5013169;28;20554;-63
2023/10/02 00:38:01;;;;;;;0.00;0.00;;;21.80;46.50;;;;;;5012192;28;20211;-60
2023/10/02 00:40:32;;;;;;;0.05;0.05;;;21.80;46.40;;;;;;5012721;28;20236;-61
2023/10/02 00:43:33;;;;;;;0.00;0.00;;;21.80;46.00;;;;;;5011956;28;20225;-60
2023/10/02 00:45:58;;;;;;;0.00;0.00;;;21.80;45.80;;;;;;5011157;28;20204;-61
2023/10/02 00:48:30;;;;;;;0.00;0.00;;;21.80;45.40;;;;;;5012220;28;20207;-55
2023/10/02 00:51:06;;;;;;;0.10;0.10;;;21.90;45.30;;;;;;5012981;28;20648;-55
2023/10/02 00:53:41;;;;;;;0.00;0.00;;;21.80;45.10;;;;;;4999339;28;20260;-61
2023/10/02 00:56:24;;;;;;;0.00;0.00;;;21.90;45.10;;;;;;5000757;28;20189;-70
2023/10/02 00:58:58;;;;;;;0.00;0.00;;;21.90;45.00;;;;;;5011982;28;20200;-59
2023/10/02 01:01:30;;;;;;;0.00;0.00;;;21.90;45.30;;;;;;5011481;28;20200;-60
2023/10/02 01:04:11;;;;;;;0.00;0.00;;;21.90;45.30;;;;;;5012993;28;20217;-60
2023/10/02 01:07:05;;;;;;;0.00;0.00;;;21.90;45.20;;;;;;5013081;28;20243;-64
2023/10/02 01:09:36;;;;;;;0.00;0.00;;;22.00;45.20;;;;;;5012479;28;20200;-63
2023/10/02 01:12:10;;;;;;;0.00;0.00;;;22.00;45.20;;;;;;5011904;28;20208;-60
2023/10/02 01:14:50;;;;;;;0.00;0.00;;;22.00;45.10;;;;;;5013155;28;20276;-58
2023/10/02 01:17:22;;;;;;;0.00;0.00;;;22.00;45.00;;;;;;5012673;28;20215;-60
2023/10/02 01:19:57;;;;;;;0.00;0.00;;;22.00;45.00;;;;;;5012609;28;20201;-57
2023/10/02 01:22:30;;;;;;;0.08;0.08;;;22.00;45.00;;;;;;5012536;28;20226;-63
2023/10/02 01:25:12;;;;;;;0.00;0.00;;;22.00;45.00;;;;;;5012488;28;20197;-56
2023/10/02 01:27:46;;;;;;;0.00;0.00;;;22.00;44.40;;;;;;5012502;28;20679;-53
2023/10/02 01:30:18;;;;;;;0.00;0.00;;;22.00;44.20;;;;;;5012848;28;20192;-62
2023/10/02 01:35:50;;;;;;;0.00;0.00;;;22.00;44.00;;;;;;5008677;28;20654;-63
2023/10/02 01:38:29;;;;;;;0.00;0.00;;;22.00;44.10;;;;;;5012265;28;20215;-59
2023/10/02 01:41:05;;;;;;;0.00;0.00;;;22.10;44.10;;;;;;5012325;28;20537;-64
2023/10/02 01:43:39;;;;;;;0.00;0.00;;;22.10;44.10;;;;;;5008145;28;20221;-62
2023/10/02 01:46:10;;;;;;;0.00;0.00;;;22.10;44.30;;;;;;5008363;28;20208;-54
2023/10/02 01:48:44;;;;;;;0.00;0.00;;;22.10;44.50;;;;;;5000202;28;20192;-60
2023/10/02 01:54:03;;;;;;;0.00;0.00;;;22.10;44.60;;;;;;4998026;28;20696;-51
2023/10/02 01:56:36;;;;;;;0.00;0.00;;;22.10;44.50;;;;;;5010997;28;20227;-55
2023/10/02 01:59:10;;;;;;;0.00;0.00;;;22.20;44.60;;;;;;5010702;28;20567;-57
2023/10/02 02:01:51;;;;;;;0.10;0.10;;;22.20;44.60;;;;;;5010140;28;20196;-62
2023/10/02 02:04:23;;;;;;;0.00;0.00;;;22.20;44.60;;;;;;5000276;28;20193;-57
2023/10/02 02:06:55;;;;;;;0.00;0.00;;;22.20;44.40;;;;;;5011327;28;20201;-59
2023/10/02 02:09:30;;;;;;;0.00;0.00;;;22.20;44.50;;;;;;5010956;28;20193;-57
2023/10/02 02:12:10;;;;;;;0.00;0.00;;;22.20;44.80;;;;;;5009815;28;20235;-54
2023/10/02 02:14:49;;;;;;;0.00;0.00;;;22.20;44.90;;;;;;5010746;28;20192;-57
2023/10/02 02:17:21;;;;;;;0.00;0.00;;;22.20;44.80;;;;;;5010910;28;20228;-65
2023/10/02 02:19:52;;;;;;;0.03;0.03;;;22.20;44.80;;;;;;5011077;28;20197;-60
2023/10/02 02:22:25;;;;;;;0.00;0.00;;;22.30;44.80;;;;;;5010467;28;20727;-57
2023/10/02 02:24:58;;;;;;;0.00;0.00;;;22.30;44.60;;;;;;5011594;28;20197;-58
2023/10/02 02:27:30;;;;;;;0.00;0.00;;;22.30;44.60;;;;;;5010671;28;20204;-57
2023/10/02 02:30:06;;;;;;;0.00;0.00;;;22.30;44.70;;;;;;5011265;28;20527;-58
2023/10/02 02:32:44;;;;;;;0.00;0.00;;;22.40;44.80;;;;;;5010662;28;22118;-53
2023/10/02 02:35:15;;;;;;;0.00;0.00;;;22.40;44.80;;;;;;5010582;28;20428;-57
2023/10/02 02:37:46;;;;;;;0.00;0.00;;;22.40;44.80;;;;;;5007771;28;20403;-64
2023/10/02 02:40:27;;;;;;;0.00;0.00;;;22.40;44.80;;;;;;5007129;28;20193;-60
2023/10/02 02:43:11;;;;;;;0.00;0.00;;;22.40;44.80;;;;;;5011241;28;20232;-60
2023/10/02 02:45:41;;;;;;;0.00;0.00;;;22.40;44.70;;;;;;5010262;28;20193;-58
2023/10/02 02:48:12;;;;;;;0.10;0.10;;;22.50;44.80;;;;;;5010926;28;20237;-48
2023/10/02 02:50:43;;;;;;;0.00;0.00;;;22.50;44.80;;;;;;5010629;28;20274;-58
2023/10/02 02:53:24;;;;;;;0.00;0.00;;;22.50;44.70;;;;;;5007691;28;20228;-51
2023/10/02 02:56:16;;;;;;;0.00;0.00;;;22.50;44.70;;;;;;5010704;28;20200;-53
2023/10/02 02:58:48;;;;;;;0.00;0.00;;;22.50;44.60;;;;;;4998136;28;20213;-55
2023/10/02 03:01:23;;;;;;;0.00;0.00;;;22.50;44.60;;;;;;5010608;28;20576;-61
2023/10/02 03:03:55;;;;;;;0.00;0.00;;;22.60;44.60;;;;;;5000043;28;20255;-57
2023/10/02 03:06:27;;;;;;;0.00;0.00;;;22.50;44.50;;;;;;5010223;28;20658;-62
2023/10/02 03:08:58;;;;;;;0.00;0.00;;;22.60;44.50;;;;;;4991032;28;20244;-63
2023/10/02 03:11:28;;;;;;;0.00;0.00;;;22.60;44.40;;;;;;5014241;28;20355;-53
2023/10/02 03:14:14;;;;;;;0.00;0.00;;;22.60;44.30;;;;;;4994261;28;20320;-56
2023/10/02 03:16:45;;;;;;;0.00;0.00;;;22.60;44.20;;;;;;5008460;28;20280;-58
2023/10/02 03:19:16;;;;;;;0.00;0.00;;;22.60;44.10;;;;;;5013115;28;20235;-59
2023/10/02 03:21:47;;;;;;;0.00;0.00;;;22.70;43.90;;;;;;5013910;28;20197;-62
2023/10/02 03:24:19;;;;;;;0.10;0.10;;;22.70;43.70;;;;;;5013674;28;20204;-60
2023/10/02 03:26:52;;;;;;;0.00;0.00;;;22.70;43.60;;;;;;5014028;28;20740;-62
2023/10/02 03:29:25;;;;;;;0.00;0.00;;;22.70;43.40;;;;;;5014045;28;20255;-56
2023/10/02 03:31:57;;;;;;;0.00;0.00;;;22.70;43.40;;;;;;5014137;28;20197;-59
2023/10/02 03:34:33;;;;;;;0.10;0.10;;;22.80;43.10;;;;;;5013368;28;20223;-64
2023/10/02 03:37:14;;;;;;;0.10;0.10;;;22.80;43.10;;;;;;5012478;28;20216;-60
2023/10/02 03:39:59;;;;;;;0.00;0.00;;;22.80;42.90;;;;;;5014020;28;20200;-53
2023/10/02 03:42:32;;;;;;;0.00;0.00;;;22.80;42.70;;;;;;5013318;28;20284;-62
2023/10/02 03:45:05;;;;;;;0.00;0.00;;;22.80;42.80;;;;;;5014138;28;20229;-60
2023/10/02 03:47:37;;;;;;;0.00;0.00;;;22.80;42.70;;;;;;5012917;28;20201;-59
2023/10/02 03:50:12;;;;;;;0.05;0.05;;;22.80;42.70;;;;;;5013940;28;20201;-55
2023/10/02 03:52:45;;;;;;;0.00;0.00;;;22.80;42.60;;;;;;5009395;28;20304;-57
2023/10/02 03:55:17;;;;;;;0.00;0.00;;;22.90;42.60;;;;;;5013400;28;20197;-58
2023/10/02 03:57:52;;;;;;;0.00;0.00;;;22.80;42.50;;;;;;5012424;28;20205;-53
2023/10/02 04:00:27;;;;;;;0.00;0.00;;;22.90;42.50;;;;;;5018794;23;20367;-49
2023/10/02 04:02:59;;;;;;;0.00;0.00;;;22.90;42.50;;;;;;4992422;28;20252;-54
2023/10/02 04:05:42;;;;;;;0.00;0.00;;;22.90;42.20;;;;;;4993921;28;20198;-54
2023/10/02 04:08:27;;;;;;;0.00;0.00;;;22.90;42.30;;;;;;4992973;28;20193;-52
2023/10/02 04:11:03;;;;;;;0.00;0.00;;;23.00;42.10;;;;;;4993586;28;20207;-55
2023/10/02 04:13:35;;;;;;;0.00;0.00;;;23.00;41.90;;;;;;4993537;28;20284;-55
2023/10/02 04:19:03;;;;;;;0.00;0.00;;;23.00;41.60;;;;;;4952442;28;20293;-52
2023/10/02 04:21:33;;;;;;;0.00;0.00;;;23.00;41.80;;;;;;4974142;28;20674;-54
2023/10/02 04:24:09;;;;;;;0.00;0.00;;;23.00;41.90;;;;;;4974280;28;20436;-54
2023/10/02 04:26:41;;;;;;;0.00;0.00;;;23.00;42.10;;;;;;4974184;28;20229;-51
2023/10/02 04:29:26;;;;;;;0.00;0.00;;;23.00;42.10;;;;;;4978042;28;20197;-54
2023/10/02 04:32:12;;;;;;;0.05;0.05;;;23.00;42.10;;;;;;4993725;28;20198;-55
2023/10/02 04:34:50;;;;;;;0.00;0.00;;;23.00;41.60;;;;;;4974309;28;20244;-53
2023/10/02 04:37:23;;;;;;;0.00;0.00;;;23.00;41.20;;;;;;4976316;28;20198;-53
2023/10/02 04:40:14;;;;;;;0.00;0.00;;;23.00;41.20;;;;;;4993991;28;20220;-55
2023/10/02 04:43:09;;;;;;;0.00;0.00;;;23.00;41.10;;;;;;4990830;28;20689;-55
2023/10/02 04:45:40;;;;;;;0.00;0.00;;;23.00;41.10;;;;;;4993166;28;20201;-54
2023/10/02 04:48:13;;;;;;;0.00;0.00;;;23.10;41.20;;;;;;4984323;28;20232;-55
2023/10/02 04:50:46;;;;;;;0.00;0.00;;;23.00;41.20;;;;;;4973112;28;20198;-55
2023/10/02 04:53:22;;;;;;;0.00;0.00;;;23.00;41.30;;;;;;4986709;28;20226;-53
2023/10/02 04:56:21;;;;;;;0.00;0.00;;;23.00;41.40;;;;;;4992373;28;20244;-54
2023/10/02 04:58:52;;;;;;;0.08;0.08;;;23.00;41.20;;;;;;4993309;28;20201;-46
2023/10/02 05:01:28;;;;;;;0.00;0.00;;;23.00;41.00;;;;;;4993294;28;20721;-46
2023/10/02 05:04:03;;;;;;;0.00;0.00;;;23.00;40.80;;;;;;4991915;28;20227;-45
2023/10/02 05:06:48;;;;;;;0.00;0.00;;;23.00;40.60;;;;;;4992082;28;20691;-46
2023/10/02 05:09:27;;;;;;;0.00;0.00;;;23.00;40.50;;;;;;4992056;28;20675;-46
2023/10/02 05:11:56;;;;;;;0.00;0.00;;;23.00;40.30;;;;;;4991558;28;20194;-45
2023/10/02 05:14:33;;;;;;;0.00;0.00;;;23.00;40.20;;;;;;4974852;28;20819;-46
2023/10/02 05:17:19;;;;;;;0.00;0.00;;;22.90;40.20;;;;;;4982531;28;20610;-46
2023/10/02 05:20:04;;;;;;;0.00;0.00;;;22.90;40.10;;;;;;4991995;28;20254;-46
2023/10/02 05:22:36;;;;;;;0.00;0.00;;;22.90;39.90;;;;;;4992025;28;20260;-48
2023/10/02 05:25:08;;;;;;;0.00;0.00;;;22.80;40.00;;;;;;4992445;28;20201;-49
2023/10/02 05:27:38;;;;;;;0.00;0.00;;;22.80;40.10;;;;;;4991355;28;20202;-49
2023/10/02 05:30:14;;;;;;;0.00;0.00;;;22.90;40.30;;;;;;4991690;28;20205;-46
2023/10/02 05:32:45;;;;;;;0.00;0.00;;;22.90;40.50;;;;;;4990762;28;20248;-48
2023/10/02 05:35:23;;;;;;;0.00;0.00;;;22.90;40.40;;;;;;4973103;28;20756;-49
2023/10/02 05:37:54;;;;;;;0.00;0.00;;;22.80;40.10;;;;;;4985978;28;20281;-46
2023/10/02 05:40:38;;;;;;;0.00;0.00;;;22.80;40.10;;;;;;4971909;28;20237;-47
2023/10/02 05:43:17;;;;;;;0.10;0.10;;;22.80;40.20;;;;;;4972789;28;20214;-47
2023/10/02 05:45:52;;;;;;;0.00;0.00;;;22.80;40.10;;;;;;4981642;28;20204;-49
2023/10/02 05:48:37;;;;;;;0.00;0.00;;;22.80;39.90;;;;;;4990133;28;20221;-49
2023/10/02 05:51:15;;;;;;;0.00;0.00;;;22.80;39.80;;;;;;4991428;28;20585;-47
2023/10/02 05:53:53;;;;;;;0.00;0.00;;;22.70;39.70;;;;;;4990974;28;20225;-47
2023/10/02 05:56:25;;;;;;;0.00;0.00;;;22.70;39.70;;;;;;4991750;28;20197;-46
2023/10/02 05:58:55;;;;;;;0.00;0.00;;;22.70;39.70;;;;;;4980962;28;20210;-48
2023/10/02 06:01:26;;;;;;;0.00;0.00;;;22.70;39.80;;;;;;4986695;28;20634;-52
2023/10/02 06:04:00;;;;;;;0.00;0.00;;;22.70;39.90;;;;;;4991011;28;20693;-46
2023/10/02 06:06:35;;;;;;;0.00;0.00;;;22.60;39.80;;;;;;4991366;28;20280;-46
2023/10/02 06:09:43;;;;;;;0.03;0.03;;;22.60;39.90;;;;;;4979518;28;20201;-47
2023/10/02 06:12:14;;;;;;;0.00;0.00;;;22.60;40.00;;;;;;4972423;28;20306;-48
2023/10/02 06:14:45;;;;;;;0.03;0.03;;;22.60;40.10;;;;;;4981091;28;20229;-50
2023/10/02 06:17:16;;;;;;;0.00;0.00;;;22.60;40.20;;;;;;4990768;28;20575;-46
2023/10/02 06:19:48;;;;;;;0.00;0.00;;;22.60;40.20;;;;;;4974983;28;20209;-49
2023/10/02 06:22:20;;;;;;;0.00;0.00;;;22.50;40.20;;;;;;4972080;28;20308;-48
2023/10/02 06:24:51;;;;;;;0.00;0.00;;;22.50;40.20;;;;;;4972219;28;20190;-48
2023/10/02 06:27:25;;;;;;;0.00;0.00;;;22.50;40.20;;;;;;4980294;28;20225;-48
2023/10/02 06:29:57;;;;;;;0.00;0.00;;;22.50;40.30;;;;;;4991535;28;20199;-47
2023/10/02 06:32:27;;;;;;;0.00;0.00;;;22.50;40.30;;;;;;4988485;28;21179;-48
2023/10/02 06:35:00;;;;;;;0.00;0.00;;;22.50;40.40;;;;;;4972739;28;20702;-45
2023/10/02 06:37:36;;;;;;;0.10;0.10;;;22.50;40.30;;;;;;4972739;28;20205;-46
2023/10/02 06:40:13;;;;;;;0.00;0.00;;;22.40;41.00;;;;;;4972684;28;20197;-46
2023/10/02 06:42:51;;;;;;;0.00;0.00;;;22.40;40.40;;;;;;4972355;28;20249;-46
2023/10/02 06:45:25;;;;;;;0.00;0.00;;;22.40;40.50;;;;;;4975223;28;20209;-46
2023/10/02 06:47:56;;;;;;;0.00;0.00;;;22.40;40.50;;;;;;4993311;28;20220;-47
2023/10/02 06:50:31;;;;;;;0.00;0.00;;;22.40;40.60;;;;;;4995804;28;20197;-46
2023/10/02 06:53:06;;;;;;;0.00;0.00;;;22.30;40.50;;;;;;4995558;28;20216;-48
2023/10/02 06:55:38;;;;;;;0.00;0.00;;;22.30;40.60;;;;;;4995255;28;20327;-47
2023/10/02 06:58:10;;;;;;;0.00;0.00;;;22.30;40.70;;;;;;4994558;28;20190;-49
2023/10/02 07:03:25;;;;;;;0.00;0.00;;;22.30;40.80;;;;;;4994897;28;20321;-48
2023/10/02 07:05:57;;;;;;;0.00;0.00;;;22.20;40.70;;;;;;4995166;28;20676;-48
2023/10/02 07:08:33;;;;;;;0.00;0.00;;;22.20;40.80;;;;;;4995169;28;20236;-47
2023/10/02 07:11:10;;;;;;;0.00;0.00;;;22.20;40.80;;;;;;4995154;28;20212;-46
2023/10/02 07:13:51;;;;;;;0.00;0.00;;;22.20;40.90;;;;;;4994885;28;20300;-48
2023/10/02 07:16:22;;;;;;;0.00;0.00;;;22.20;40.80;;;;;;4994989;28;20197;-48
2023/10/02 07:18:54;;;;;;;0.00;0.00;;;22.10;40.80;;;;;;4995227;28;20198;-48
2023/10/02 07:21:27;;;;;;;0.00;0.00;;;22.10;40.80;;;;;;4995215;28;20205;-47
2023/10/02 07:24:01;;;;;;;0.00;0.00;;;22.10;40.90;;;;;;4995126;28;20634;-48
2023/10/02 07:29:17;;;;;;;0.05;0.05;;;22.10;40.90;;;;;;4992322;28;20649;-53
2023/10/02 07:31:48;;;;;;;0.00;0.00;;;22.00;40.80;;;;;;4994742;28;20193;-53
2023/10/02 07:34:26;;;;;;;0.00;0.00;;;22.00;39.30;;;;;;4995000;28;20252;-47
2023/10/02 07:36:57;;;;;;;0.00;0.00;;;21.90;37.80;;;;;;4994526;28;20189;-48
2023/10/02 07:39:40;;;;;;;0.00;0.00;;;21.70;37.40;;;;;;4995132;28;20251;-47
2023/10/02 07:42:12;;;;;;;0.00;0.00;;;21.60;37.60;;;;;;4994548;28;20197;-46
2023/10/02 07:44:45;;;;;;;0.00;0.00;;;21.50;38.00;;;;;;4993852;28;20213;-47
2023/10/02 07:47:21;;;;;;;0.00;0.00;;;21.40;38.30;;;;;;4991790;28;20285;-46
2023/10/02 07:49:58;;;;;;;0.00;0.00;;;21.40;38.60;;;;;;4993620;28;20600;-48
2023/10/02 07:52:35;;;;;;;0.00;0.00;;;21.30;38.80;;;;;;4993340;28;20249;-48
2023/10/02 07:55:10;;;;;;;0.00;0.00;;;21.30;39.00;;;;;;4993695;28;20232;-47
2023/10/02 07:57:41;;;;;;;0.10;0.10;;;21.30;39.10;;;;;;4993017;28;20233;-46
2023/10/02 08:03:02;;;;;;;0.00;0.00;;;21.20;39.90;;;;;;4993433;28;20218;-46
2023/10/02 08:05:36;;;;;;;0.10;0.10;;;21.20;39.40;;;;;;4993891;28;20197;-47
2023/10/02 08:08:11;;;;;;;0.00;0.00;;;21.20;39.50;;;;;;4974055;28;20204;-48
2023/10/02 08:10:52;;;;;;;0.00;0.00;;;21.20;39.60;;;;;;4974684;28;20721;-46
2023/10/02 08:13:32;;;;;;;0.00;0.00;;;21.20;39.70;;;;;;4992590;28;20222;-47
2023/10/02 08:16:08;;;;;;;0.00;0.00;;;21.10;39.70;;;;;;4992753;28;20221;-48
2023/10/02 08:18:56;;;;;;;0.00;0.00;;;21.10;39.70;;;;;;4992997;28;20189;-46
2023/10/02 08:21:36;;;;;;;0.00;0.00;;;21.10;39.90;;;;;;4988220;28;20694;-47
2023/10/02 08:24:11;;;;;;;0.10;0.10;;;21.10;39.90;;;;;;4974166;28;20224;-47
2023/10/02 08:26:45;;;;;;;0.00;0.00;;;21.10;40.00;;;;;;4986382;28;20320;-46
2023/10/02 08:29:18;;;;;;;0.00;0.00;;;21.10;40.00;;;;;;4992302;28;20208;-47
2023/10/02 08:31:49;;;;;;;0.00;0.00;;;21.00;40.10;;;;;;4992689;28;20193;-47
2023/10/02 08:34:24;;;;;;;0.00;0.00;;;21.00;40.10;;;;;;4992390;28;20221;-46
2023/10/02 08:37:12;;;;;;;0.10;0.10;;;21.00;40.40;;;;;;4982366;28;20668;-47
2023/10/02 08:39:44;;;;;;;0.00;0.00;;;21.00;40.20;;;;;;4987296;28;20611;-46
2023/10/02 08:42:18;;;;;;;0.00;0.00;;;21.00;40.30;;;;;;4992423;28;20228;-48
2023/10/02 08:44:49;;;;;;;0.08;0.08;;;20.90;40.20;;;;;;4993438;28;20244;-47
2023/10/02 08:47:26;;;;;;;0.00;0.00;;;20.90;40.20;;;;;;4981663;28;20289;-46
2023/10/02 08:50:04;;;;;;;0.10;0.10;;;20.90;40.30;;;;;;4973754;28;20197;-50
2023/10/02 08:52:47;;;;;;;0.00;0.00;;;20.90;40.30;;;;;;4979919;28;20217;-47
2023/10/02 08:55:51;;;;;;;0.00;0.00;;;20.80;40.30;;;;;;4992698;28;20708;-48
2023/10/02 08:58:27;;;;;;;0.00;0.00;;;20.90;40.40;;;;;;4992945;28;20208;-48
2023/10/02 09:04:21;;;;;;;0.00;0.00;;;20.80;40.40;;;;;;4995304;28;20351;-58
2023/10/02 09:06:45;;;;;;;0.10;0.10;;;20.70;40.40;;;;;;4997899;28;20669;-65
2023/10/02 09:09:36;;;;;;;0.00;0.00;;;20.70;40.50;;;;;;5011526;28;20611;-56
2023/10/02 09:12:15;;;;;;;0.10;0.10;;;20.70;40.60;;;;;;5012119;28;20594;-57
2023/10/02 09:14:47;;;;;;;0.00;0.00;;;20.70;40.60;;;;;;5011349;28;20228;-63
2023/10/02 09:17:33;;;;;;;0.00;0.00;;;20.70;40.70;;;;;;5011226;28;20201;-62
2023/10/02 09:20:07;;;;;;;0.00;0.00;;;20.70;40.70;;;;;;5011652;28;20204;-55
2023/10/02 09:22:38;;;;;;;0.00;0.00;;;20.60;40.70;;;;;;5011328;28;20217;-55
2023/10/02 09:25:12;;;;;;;0.10;0.10;;;20.60;40.70;;;;;;5011636;28;20247;-64
2023/10/02 09:27:57;;;;;;;0.10;0.10;;;20.60;40.70;;;;;;5010597;28;20228;-61
2023/10/02 09:30:38;;;;;;;0.10;0.10;;;20.60;40.80;;;;;;5011026;28;20200;-61
2023/10/02 09:33:11;;;;;;;0.00;0.00;;;20.60;40.80;;;;;;5011042;28;20642;-54
2023/10/02 09:35:43;;;;;;;0.00;0.00;;;20.60;40.80;;;;;;5011890;28;20455;-54
2023/10/02 09:38:15;;;;;;;0.00;0.00;;;20.50;41.40;;;;;;5011389;28;20232;-58
2023/10/02 09:40:58;;;;;;;0.00;0.00;;;20.50;40.80;;;;;;5011559;28;20199;-56
2023/10/02 09:43:31;;;;;;;0.03;0.03;;;20.50;41.00;;;;;;5010572;28;20302;-55
2023/10/02 09:46:05;;;;;;;0.00;0.00;;;20.50;40.90;;;;;;5011238;28;20192;-58
2023/10/02 09:48:52;;;;;;;0.00;0.00;;;20.40;40.90;;;;;;5011499;28;20196;-59
2023/10/02 09:51:41;;;;;;;0.00;0.00;;;20.40;40.90;;;;;;5011611;28;20204;-64
2023/10/02 09:54:28;;;;;;;0.00;0.00;;;20.40;41.00;;;;;;5011370;28;20704;-55
2023/10/02 09:57:11;;;;;;;0.00;0.00;;;20.40;41.00;;;;;;5011710;28;20189;-57
2023/10/02 09:59:48;;;;;;;0.00;0.00;;;20.30;41.00;;;;;;5010308;28;20195;-57
2023/10/02 10:08:27;;;;;;;0.00;0.00;;;20.30;41.00;;;;;;5006219;28;20201;-55
2023/10/02 10:11:10;;;;;;;0.00;0.00;;;20.30;41.10;;;;;;5011640;28;20200;-60
2023/10/02 10:13:46;;;;;;;0.00;0.00;;;20.20;41.10;;;;;;5010176;28;20213;-53
2023/10/02 10:16:36;;;;;;;0.00;0.00;;;20.20;41.10;;;;;;5010694;28;20228;-55
2023/10/02 10:19:33;;;;;;;0.00;0.00;;;20.20;41.10;;;;;;5010589;28;20200;-58
2023/10/02 10:22:04;;;;;;;0.00;0.00;;;20.20;41.10;;;;;;5010728;28;20629;-60
2023/10/02 10:24:56;;;;;;;0.00;0.00;;;20.10;41.10;;;;;;5011304;28;20256;-57
2023/10/02 10:27:55;;;;;;;0.00;0.00;;;20.10;41.20;;;;;;5011071;28;20661;-63
2023/10/02 10:30:46;;;;;;;0.00;0.00;;;20.10;41.20;;;;;;5010688;28;20193;-58
2023/10/02 10:33:40;;;;;;;0.00;0.00;;;20.00;41.20;;;;;;5010629;28;20762;-64
2023/10/02 10:36:40;;;;;;;0.00;0.00;;;20.00;41.20;;;;;;5010392;28;20224;-61
2023/10/02 10:40:35;;;;;;;0.00;0.00;;;20.00;41.30;;;;;;5003658;28;20228;-57
2023/10/02 10:43:05;;;;;;;0.00;0.00;;;19.90;41.20;;;;;;4968186;28;20214;-52
2023/10/02 10:45:38;;;;;;;0.00;0.00;;;19.90;41.30;;;;;;4969918;28;20198;-51
2023/10/02 10:48:18;;;;;;;0.00;0.00;;;19.90;41.30;;;;;;5006591;28;20201;-61
2023/10/02 10:50:57;;;;;;;0.00;0.00;;;19.90;41.30;;;;;;5012101;28;20554;-53
2023/10/02 10:53:29;;;;;;;0.00;0.00;;;19.80;41.30;;;;;;5011661;28;20602;-52
2023/10/02 10:56:06;;;;;;;0.00;0.00;;;19.80;41.30;;;;;;5010935;28;20217;-50
2023/10/02 10:58:37;;;;;;;0.08;0.08;;;19.80;41.30;;;;;;5007598;28;20528;-55
2023/10/02 11:01:13;;;;;;;0.00;0.00;;;19.80;41.30;;;;;;5040845;23;20219;-46
2023/10/02 11:03:43;;;;;;;0.00;0.00;;;19.70;41.30;;;;;;5033566;28;20212;-46
2023/10/02 11:06:16;;;;;;;0.08;0.08;;;19.70;41.30;;;;;;5030764;28;20188;-46
2023/10/02 11:09:11;;;;;;;0.00;0.00;;;19.70;41.90;;;;;;5027811;28;20546;-48
2023/10/02 11:11:50;;;;;;;0.00;0.00;;;19.70;41.30;;;;;;5029288;28;20631;-47
2023/10/02 11:14:22;;;;;;;0.00;0.00;;;19.70;41.40;;;;;;5026763;28;20591;-45
2023/10/02 11:16:57;;;;;;;0.00;0.00;;;19.60;41.30;;;;;;5030517;28;20259;-47
2023/10/02 11:19:34;;;;;;;0.00;0.00;;;19.60;41.40;;;;;;5030627;28;20192;-46
2023/10/02 11:25:20;;;;;;;0.00;0.00;;;19.60;41.40;;;;;;5027195;28;20196;-47
2023/10/02 11:27:58;;;;;;;0.00;0.00;;;19.50;41.40;;;;;;5029104;28;20261;-46
2023/10/02 11:30:36;;;;;;;0.00;0.00;;;19.50;41.40;;;;;;5029637;28;20275;-46
2023/10/02 11:33:07;;;;;;;0.00;0.00;;;19.50;41.40;;;;;;5032100;28;20657;-46
2023/10/02 11:35:43;;;;;;;0.00;0.00;;;19.50;41.50;;;;;;5031286;28;20227;-47
2023/10/02 11:38:18;;;;;;;0.00;0.00;;;19.50;41.50;;;;;;5033812;28;20196;-46
2023/10/02 11:40:52;;;;;;;0.00;0.00;;;19.40;41.50;;;;;;5033938;28;20193;-47
2023/10/02 11:43:22;;;;;;;0.00;0.00;;;19.40;41.50;;;;;;5031623;28;20215;-48
2023/10/02 11:45:53;;;;;;;0.00;0.00;;;19.40;41.50;;;;;;5033714;28;20215;-47
2023/10/02 11:48:25;;;;;;;0.10;0.10;;;19.40;41.50;;;;;;5033877;28;20192;-48
2023/10/02 11:50:57;;;;;;;0.00;0.00;;;19.30;41.50;;;;;;5033873;28;20188;-47
2023/10/02 11:53:28;;;;;;;0.00;0.00;;;19.30;41.50;;;;;;5031190;28;20362;-48
2023/10/02 11:56:01;;;;;;;0.10;0.10;;;19.30;41.60;;;;;;5030863;28;20227;-46
2023/10/02 11:58:31;;;;;;;0.00;0.00;;;19.30;41.60;;;;;;5033530;28;20276;-47
2023/10/02 12:01:06;;;;;;;0.00;0.00;;;19.30;41.60;;;;;;5027220;23;20217;-54
2023/10/02 12:03:37;;;;;;;0.00;0.00;;;19.20;41.60;;;;;;5007801;28;20636;-48
2023/10/02 12:06:14;;;;;;;0.00;0.00;;;19.20;41.60;;;;;;5013807;28;20212;-53
2023/10/02 12:08:46;;;;;;;0.00;0.00;;;19.20;41.60;;;;;;5013705;28;20192;-61
2023/10/02 12:11:18;;;;;;;0.03;0.03;;;19.20;41.70;;;;;;5013068;28;20225;-57
2023/10/02 12:13:49;;;;;;;0.00;0.00;;;19.10;41.60;;;;;;5012899;28;20217;-50
2023/10/02 12:16:21;;;;;;;0.00;0.00;;;19.10;41.70;;;;;;5011100;28;20239;-57
2023/10/02 12:18:52;;;;;;;0.00;0.00;;;19.10;41.70;;;;;;5013727;28;20193;-51
2023/10/02 12:21:23;;;;;;;0.00;0.00;;;19.10;41.70;;;;;;5013551;28;20193;-55
2023/10/02 12:23:53;;;;;;;0.00;0.00;;;19.10;41.70;;;;;;5013440;28;20224;-52
2023/10/02 12:26:27;;;;;;;0.10;0.10;;;19.10;41.70;;;;;;5013425;28;20203;-54
2023/10/02 12:28:57;;;;;;;0.00;0.00;;;19.00;41.70;;;;;;5013535;28;20243;-52
2023/10/02 12:31:30;;;;;;;0.00;0.00;;;19.00;41.60;;;;;;5014216;28;20204;-45
2023/10/02 12:34:00;;;;;;;0.05;0.05;;;19.00;41.70;;;;;;5013709;28;20649;-54
2023/10/02 12:36:31;;;;;;;0.00;0.00;;;19.00;41.70;;;;;;5013152;28;20233;-54
2023/10/02 12:39:04;;;;;;;0.00;0.00;;;18.90;41.70;;;;;;5012968;28;20205;-45
2023/10/02 12:41:36;;;;;;;0.10;0.10;;;18.90;41.70;;;;;;5013416;28;20280;-49
2023/10/02 12:44:08;;;;;;;0.00;0.00;;;18.90;41.70;;;;;;5013619;28;20217;-52
2023/10/02 12:46:48;;;;;;;0.05;0.05;;;18.90;41.80;;;;;;5013263;28;20201;-57
2023/10/02 12:49:20;;;;;;;0.00;0.00;;;18.90;41.80;;;;;;5009882;28;20196;-52
2023/10/02 12:51:52;;;;;;;0.10;0.10;;;18.90;41.80;;;;;;5013721;28;20275;-49
2023/10/02 12:54:23;;;;;;;0.10;0.10;;;18.90;41.80;;;;;;5013332;28;20366;-53
2023/10/02 12:56:55;;;;;;;0.00;0.00;;;18.80;41.80;;;;;;5012988;28;20239;-53
2023/10/02 12:59:26;;;;;;;0.10;0.10;;;18.80;41.90;;;;;;5012926;28;20295;-55
2023/10/02 13:01:57;;;;;;;0.00;0.00;;;18.80;42.00;;;;;;5025788;23;20229;-46
2023/10/02 13:04:29;;;;;;;0.03;0.03;;;18.70;41.80;;;;;;5032194;28;20710;-46
2023/10/02 13:07:01;;;;;;;0.00;0.00;;;18.70;41.90;;;;;;5032270;28;20595;-46
2023/10/02 13:09:32;;;;;;;0.10;0.10;;;18.70;41.90;;;;;;5032106;28;20204;-46
2023/10/02 13:12:05;;;;;;;0.10;0.10;;;18.70;41.90;;;;;;5032537;28;20196;-47
2023/10/02 13:14:37;;;;;;;0.00;0.00;;;18.70;41.90;;;;;;5032365;28;20196;-46
2023/10/02 13:17:08;;;;;;;0.10;0.10;;;18.70;41.90;;;;;;5023216;28;20238;-47
2023/10/02 13:19:38;;;;;;;0.00;0.00;;;18.70;41.90;;;;;;5032030;28;20507;-46
2023/10/02 13:22:09;;;;;;;0.10;0.10;;;18.60;41.90;;;;;;5032167;28;20615;-46
2023/10/02 13:24:42;;;;;;;0.10;0.10;;;18.60;42.00;;;;;;5031837;28;20196;-46
2023/10/02 13:27:17;;;;;;;0.00;0.00;;;18.60;42.00;;;;;;5032071;28;20541;-46
2023/10/02 13:29:51;;;;;;;0.00;0.00;;;18.50;42.00;;;;;;5031765;28;20731;-48
2023/10/02 13:32:22;;;;;;;0.00;0.00;;;18.60;42.00;;;;;;5031469;28;20418;-47
2023/10/02 13:34:54;;;;;;;0.00;0.00;;;18.50;42.10;;;;;;5031585;28;20581;-46
2023/10/02 13:37:24;;;;;;;0.00;0.00;;;18.50;42.10;;;;;;5031778;28;20569;-47
2023/10/02 13:39:55;;;;;;;0.00;0.00;;;18.50;42.10;;;;;;5031668;28;20687;-46
2023/10/02 13:42:27;;;;;;;0.00;0.00;;;18.50;42.10;;;;;;5031722;28;20590;-47
2023/10/02 13:44:58;;;;;;;0.10;0.10;;;18.40;42.10;;;;;;5031712;28;20211;-47
2023/10/02 13:47:31;;;;;;;0.00;0.00;;;18.40;42.10;;;;;;5031699;28;20606;-47
2023/10/02 13:50:01;;;;;;;0.00;0.00;;;18.40;42.10;;;;;;5031445;28;20640;-47
2023/10/02 13:52:32;;;;;;;0.10;0.10;;;18.40;42.10;;;;;;5032229;28;20223;-47
2023/10/02 13:55:19;;;;;;;0.10;0.10;;;18.40;42.20;;;;;;5031442;28;20564;-48
2023/10/02 13:57:52;;;;;;;0.00;0.00;;;18.40;42.20;;;;;;5031787;28;20306;-48
2023/10/02 14:00:23;;;;;;;0.00;0.00;;;18.30;42.10;;;;;;5031874;28;20266;-47
2023/10/02 14:02:54;;;;;;;0.10;0.10;;;18.30;42.10;;;;;;5031429;28;20212;-47